Time;durP1;ratioP1;P1;durP2;ratioP2;P2;SDS_P1;SDS_P2;PMS_P1;PMS_P2;Temp;Humidity;BMP_temperature;BMP_pressure;BME280_temperature;BME280_humidity;BME280_pressure;Samples;Min_cycle;Max_cycle;Signal;HPM_P1;HPM_P2
2023/07/27 00:01:10;;;;;;;2.10;0.88;;;;;;;14.57;100.00;96251.56;5036014;28;20221;-68
2023/07/27 00:03:37;;;;;;;3.03;0.95;;;;;;;14.51;100.00;96247.06;5036520;28;20208;-68
2023/07/27 00:06:03;;;;;;;1.27;0.98;;;;;;;14.52;100.00;96254.00;5036424;28;20201;-68
2023/07/27 00:08:31;;;;;;;1.75;0.75;;;;;;;14.57;100.00;96251.56;5035505;28;20229;-68
2023/07/27 00:10:58;;;;;;;0.80;0.80;;;;;;;14.52;100.00;96251.34;5036245;28;20216;-67
2023/07/27 00:13:24;;;;;;;1.92;1.10;;;;;;;14.56;100.00;96250.75;5036393;28;20217;-67
2023/07/27 00:15:51;;;;;;;1.15;0.80;;;;;;;14.49;100.00;96249.91;5036377;28;20258;-68
2023/07/27 00:18:17;;;;;;;1.13;0.80;;;;;;;14.53;100.00;96239.72;5035809;28;20687;-67
2023/07/27 00:20:44;;;;;;;0.75;0.70;;;;;;;14.47;100.00;96245.81;5035633;28;20239;-68
2023/07/27 00:23:10;;;;;;;1.55;1.10;;;;;;;14.50;100.00;96242.75;5035877;28;20685;-68
2023/07/27 00:25:38;;;;;;;1.95;0.75;;;;;;;14.56;100.00;96240.16;5037383;28;20201;-68
2023/07/27 00:28:05;;;;;;;1.92;0.98;;;;;;;14.40;100.00;96237.03;5035341;28;20236;-68
2023/07/27 00:30:31;;;;;;;1.85;1.08;;;;;;;14.43;100.00;96234.00;5035105;28;20228;-68
2023/07/27 00:32:58;;;;;;;1.23;0.77;;;;;;;14.56;100.00;96228.72;5036519;28;20201;-67
2023/07/27 00:35:25;;;;;;;1.27;1.00;;;;;;;14.43;100.00;96234.78;5036717;28;20209;-68
2023/07/27 00:37:51;;;;;;;3.85;1.20;;;;;;;14.25;100.00;96236.38;5035039;28;20212;-67
2023/07/27 00:40:18;;;;;;;1.65;1.05;;;;;;;14.34;100.00;96233.34;5036425;28;20224;-68
2023/07/27 00:42:46;;;;;;;1.50;1.08;;;;;;;14.42;100.00;96242.94;5036134;28;20662;-68
2023/07/27 00:45:13;;;;;;;1.42;1.00;;;;;;;14.31;100.00;96240.91;5035978;28;20201;-68
2023/07/27 00:47:39;;;;;;;4.63;1.10;;;;;;;14.24;100.00;96240.03;5035443;28;20595;-67
2023/07/27 00:50:06;;;;;;;1.08;0.90;;;;;;;14.36;100.00;96243.78;5036404;28;20205;-68
2023/07/27 00:52:33;;;;;;;2.20;1.48;;;;;;;14.23;100.00;96241.06;5035952;28;20582;-68
2023/07/27 00:55:00;;;;;;;1.67;1.00;;;;;;;14.34;100.00;96235.19;5037098;28;20205;-68
2023/07/27 00:57:27;;;;;;;2.45;0.90;;;;;;;14.41;100.00;96236.00;5039270;28;20205;-67
2023/07/27 00:59:54;;;;;;;1.83;0.77;;;;;;;14.50;100.00;96234.81;5039454;28;20205;-68
2023/07/27 01:02:21;;;;;;;2.42;1.48;;;;;;;14.25;100.00;96233.72;5039806;28;20202;-68
2023/07/27 01:04:48;;;;;;;1.13;0.90;;;;;;;14.31;100.00;96230.28;5039844;28;20631;-68
2023/07/27 01:07:14;;;;;;;2.90;0.98;;;;;;;14.21;100.00;96229.84;5039161;28;20245;-67
2023/07/27 01:09:41;;;;;;;2.00;1.20;;;;;;;14.24;100.00;96226.78;5039366;28;20209;-68
2023/07/27 01:12:16;;;;;;;1.08;0.82;;;;;;;14.46;100.00;96228.28;5039498;28;20232;-68
2023/07/27 01:14:52;;;;;;;9.25;1.23;;;;;;;14.40;100.00;96224.59;5039489;28;20942;-68
2023/07/27 01:17:27;;;;;;;1.90;1.20;;;;;;;14.24;100.00;96224.13;5038727;28;20219;-67
2023/07/27 01:20:05;;;;;;;1.35;0.80;;;;;;;14.31;100.00;96219.69;5039196;28;20219;-68
2023/07/27 01:22:58;;;;;;;1.15;0.75;;;;;;;14.44;100.00;96214.41;5039575;28;20209;-68
2023/07/27 01:25:42;;;;;;;2.35;0.82;;;;;;;14.37;100.00;96213.56;5039588;28;20663;-68
2023/07/27 01:28:22;;;;;;;0.93;0.93;;;;;;;14.43;100.00;96202.16;5038116;28;20217;-68
2023/07/27 01:30:54;;;;;;;1.67;0.95;;;;;;;14.43;100.00;96202.16;5039013;28;20236;-68
2023/07/27 01:33:27;;;;;;;0.60;0.60;;;;;;;14.42;100.00;96200.53;5039012;28;21009;-67
2023/07/27 01:36:02;;;;;;;1.30;1.00;;;;;;;14.37;100.00;96203.81;5038937;28;20760;-68
2023/07/27 01:38:31;;;;;;;1.23;0.90;;;;;;;14.18;100.00;96203.75;5038570;28;20193;-67
2023/07/27 01:40:58;;;;;;;1.27;0.80;;;;;;;14.10;100.00;96199.44;5039197;28;20213;-68
2023/07/27 01:43:26;;;;;;;1.98;1.08;;;;;;;14.20;100.00;96199.06;5038769;28;20209;-67
2023/07/27 01:45:55;;;;;;;2.38;1.00;;;;;;;14.25;100.00;96201.94;5039131;28;20205;-68
2023/07/27 01:48:25;;;;;;;0.95;0.80;;;;;;;14.19;100.00;96190.31;5038857;28;20225;-68
2023/07/27 01:50:52;;;;;;;1.23;1.10;;;;;;;14.14;100.00;96192.72;5038968;28;20236;-68
2023/07/27 01:53:20;;;;;;;1.05;0.95;;;;;;;14.23;100.00;96191.53;5038735;28;20212;-67
2023/07/27 01:55:48;;;;;;;1.27;0.90;;;;;;;14.28;100.00;96185.63;5038500;28;20202;-67
2023/07/27 01:58:17;;;;;;;4.20;1.00;;;;;;;14.20;100.00;96181.31;5037452;28;20193;-67
2023/07/27 02:00:44;;;;;;;0.90;0.90;;;;;;;14.11;100.00;96177.22;5038494;28;20221;-68
2023/07/27 02:03:13;;;;;;;1.53;1.07;;;;;;;14.27;100.00;96181.34;5038623;28;20201;-68
2023/07/27 02:05:39;;;;;;;6.50;1.00;;;;;;;14.05;100.00;96185.09;5038150;28;20208;-67
2023/07/27 02:08:06;;;;;;;3.47;1.15;;;;;;;14.13;100.00;96174.38;5037380;28;20225;-68
2023/07/27 02:10:33;;;;;;;1.98;1.00;;;;;;;14.31;100.00;96171.97;5038978;28;20221;-68
2023/07/27 02:13:06;;;;;;;1.33;0.77;;;;;;;14.50;100.00;96158.75;5038262;28;20578;-67
2023/07/27 02:15:37;;;;;;;2.55;1.20;;;;;;;14.26;100.00;96161.97;5038444;28;20216;-68
2023/07/27 02:18:10;;;;;;;4.60;1.47;;;;;;;14.39;100.00;96155.88;5038117;28;20197;-67
2023/07/27 02:20:39;;;;;;;1.45;0.88;;;;;;;14.48;100.00;96162.63;5038385;28;20231;-67
2023/07/27 02:23:07;;;;;;;2.03;1.15;;;;;;;14.18;100.00;96150.75;5038469;28;20565;-68
2023/07/27 02:25:34;;;;;;;1.67;0.93;;;;;;;14.34;100.00;96145.06;5038447;28;20201;-68
2023/07/27 02:28:01;;;;;;;1.83;1.20;;;;;;;14.22;100.00;96152.78;5037135;28;20228;-68
2023/07/27 02:30:27;;;;;;;1.80;1.00;;;;;;;14.26;100.00;96153.22;5037899;28;20229;-68
2023/07/27 02:32:54;;;;;;;1.63;0.85;;;;;;;14.17;100.00;96159.72;5038294;28;20201;-68
2023/07/27 02:35:21;;;;;;;1.33;0.80;;;;;;;14.24;100.00;96147.28;5037915;28;21207;-68
2023/07/27 02:37:49;;;;;;;1.63;0.90;;;;;;;14.27;100.00;96154.84;5037097;28;20201;-68
2023/07/27 02:40:15;;;;;;;1.77;1.20;;;;;;;14.06;100.00;96147.00;5038343;28;20603;-68
2023/07/27 02:42:42;;;;;;;1.63;1.00;;;;;;;14.10;100.00;96137.66;5037761;28;20209;-68
2023/07/27 02:45:09;;;;;;;1.35;0.90;;;;;;;14.23;100.00;96145.63;5035443;28;20208;-68
2023/07/27 02:47:36;;;;;;;2.88;1.15;;;;;;;14.11;100.00;96141.94;5036758;28;20259;-68
2023/07/27 02:50:02;;;;;;;1.60;0.80;;;;;;;14.06;100.00;96139.06;5038503;28;20224;-68
2023/07/27 02:52:29;;;;;;;2.33;1.20;;;;;;;14.16;100.00;96144.81;5037499;28;20200;-68
2023/07/27 02:54:56;;;;;;;1.77;1.05;;;;;;;14.34;100.00;96135.25;5037739;28;20207;-67
2023/07/27 02:57:23;;;;;;;1.90;0.80;;;;;;;14.14;100.00;96133.59;5036991;28;20673;-68
2023/07/27 02:59:49;;;;;;;1.58;1.02;;;;;;;14.11;100.00;96136.66;5037023;28;20205;-68
2023/07/27 03:02:17;;;;;;;1.45;0.90;;;;;;;14.17;100.00;96138.50;5037664;28;20205;-67
2023/07/27 03:04:43;;;;;;;2.17;1.00;;;;;;;14.12;100.00;96148.91;5037690;28;20709;-68
2023/07/27 03:07:10;;;;;;;0.90;0.80;;;;;;;14.06;100.00;96147.00;5036740;28;20201;-67
2023/07/27 03:09:36;;;;;;;1.52;0.70;;;;;;;14.07;100.00;96148.66;5037175;28;20323;-67
2023/07/27 03:12:06;;;;;;;0.68;0.60;;;;;;;14.26;100.00;96135.47;5037569;28;20225;-68
2023/07/27 03:14:32;;;;;;;0.93;0.80;;;;;;;14.08;100.00;96140.53;5037504;28;20197;-67
2023/07/27 03:16:59;;;;;;;1.52;0.77;;;;;;;14.05;100.00;96140.91;5035865;28;20201;-67
2023/07/27 03:19:25;;;;;;;1.52;1.00;;;;;;;14.01;100.00;96142.31;5037481;28;20339;-68
2023/07/27 03:21:52;;;;;;;1.50;0.82;;;;;;;14.01;100.00;96138.84;5037230;28;20228;-67
2023/07/27 03:24:18;;;;;;;1.33;0.98;;;;;;;14.06;100.00;96136.41;5036713;28;20700;-67
2023/07/27 03:26:45;;;;;;;1.33;1.13;;;;;;;14.01;100.00;96134.38;5036753;28;20296;-68
2023/07/27 03:29:13;;;;;;;1.73;1.35;;;;;;;14.27;100.00;96126.50;5036603;28;20227;-68
2023/07/27 03:31:39;;;;;;;1.13;0.82;;;;;;;14.08;100.00;96119.31;5036491;28;20232;-68
2023/07/27 03:34:06;;;;;;;1.63;0.70;;;;;;;14.07;100.00;96124.78;5037191;28;20205;-67
2023/07/27 03:36:32;;;;;;;1.27;0.80;;;;;;;14.12;100.00;96130.34;5037257;28;20205;-68
2023/07/27 03:38:59;;;;;;;1.33;0.93;;;;;;;14.24;100.00;96131.38;5036138;28;20197;-68
2023/07/27 03:41:25;;;;;;;1.45;0.90;;;;;;;14.16;100.00;96120.97;5036411;28;21363;-67
2023/07/27 03:43:52;;;;;;;2.97;1.65;;;;;;;14.21;100.00;96123.84;5036683;28;20205;-67
2023/07/27 03:46:20;;;;;;;2.13;0.70;;;;;;;14.17;100.00;96112.00;5037329;28;20205;-68
2023/07/27 03:48:48;;;;;;;0.98;0.70;;;;;;;14.18;100.00;96109.16;5035810;28;20262;-68
2023/07/27 03:51:14;;;;;;;1.60;0.57;;;;;;;14.24;100.00;96104.88;5036879;28;20286;-68
2023/07/27 03:53:41;;;;;;;1.60;0.90;;;;;;;14.35;100.00;96112.22;5036718;28;20208;-68
2023/07/27 03:56:08;;;;;;;1.23;0.88;;;;;;;14.35;100.00;96104.28;5036484;28;20946;-68
2023/07/27 03:58:35;;;;;;;0.77;0.63;;;;;;;14.50;100.00;96108.38;5035726;28;20205;-67
2023/07/27 04:01:01;;;;;;;1.73;0.88;;;;;;;14.49;100.00;96122.63;5037108;28;20656;-68
2023/07/27 04:03:29;;;;;;;1.30;0.70;;;;;;;14.63;100.00;96120.81;5037991;28;20210;-68
2023/07/27 04:05:56;;;;;;;3.72;1.20;;;;;;;14.43;100.00;96127.94;5036602;28;20201;-67
2023/07/27 04:08:22;;;;;;;0.88;0.68;;;;;;;14.50;100.00;96134.03;5035349;28;21351;-68
2023/07/27 04:10:49;;;;;;;1.25;1.13;;;;;;;14.55;100.00;96132.44;5036900;28;20229;-68
2023/07/27 04:13:15;;;;;;;2.22;1.10;;;;;;;14.50;100.00;96128.75;5036642;28;20212;-68
2023/07/27 04:15:42;;;;;;;2.25;0.60;;;;;;;14.68;100.00;96117.31;5035888;28;20788;-68
2023/07/27 04:18:09;;;;;;;3.17;1.50;;;;;;;14.68;100.00;96114.66;5036080;28;20867;-68
2023/07/27 04:20:36;;;;;;;2.47;1.30;;;;;;;14.97;100.00;96108.09;5036238;28;20236;-67
2023/07/27 04:23:03;;;;;;;8.07;1.80;;;;;;;14.84;100.00;96114.28;5035909;28;20490;-67
2023/07/27 04:25:29;;;;;;;8.68;2.63;;;;;;;14.96;100.00;96114.47;5036372;28;20211;-67
2023/07/27 04:27:56;;;;;;;11.98;3.80;;;;;;;15.09;100.00;96109.94;5035684;28;20209;-67
2023/07/27 04:30:23;;;;;;;18.40;6.60;;;;;;;14.92;100.00;96121.19;5039802;28;20217;-67
2023/07/27 04:32:49;;;;;;;12.13;5.88;;;;;;;14.99;100.00;96125.44;5040491;28;20205;-67
2023/07/27 04:35:16;;;;;;;9.13;3.28;;;;;;;15.05;100.00;96114.03;5040772;28;20196;-67
2023/07/27 04:37:44;;;;;;;6.82;2.15;;;;;;;15.22;100.00;96103.81;5039550;28;20201;-67
2023/07/27 04:40:13;;;;;;;13.05;3.05;;;;;;;15.09;100.00;96117.88;5040224;28;20236;-67
2023/07/27 04:42:40;;;;;;;6.57;2.03;;;;;;;15.13;100.00;96113.78;5040116;28;20662;-67
2023/07/27 04:45:08;;;;;;;3.83;1.30;;;;;;;15.21;100.00;96105.66;5040404;28;20696;-67
2023/07/27 04:47:34;;;;;;;4.13;1.17;;;;;;;15.10;100.00;96098.28;5039129;28;20217;-67
2023/07/27 04:50:01;;;;;;;1.60;0.80;;;;;;;15.21;100.00;96104.81;5039763;28;20232;-67
2023/07/27 04:52:28;;;;;;;1.50;1.38;;;;;;;15.20;100.00;96100.50;5040005;28;20197;-67
2023/07/27 04:54:56;;;;;;;0.98;0.88;;;;;;;15.34;100.00;96098.47;5040345;28;20209;-67
2023/07/27 04:57:23;;;;;;;4.68;1.17;;;;;;;15.27;100.00;96099.50;5039147;28;20201;-67
2023/07/27 04:59:49;;;;;;;1.58;0.75;;;;;;;15.22;100.00;96094.00;5039799;28;20212;-67
2023/07/27 05:02:16;;;;;;;5.05;1.58;;;;;;;15.32;100.00;96097.03;5040186;28;20220;-67
2023/07/27 05:04:42;;;;;;;1.80;1.33;;;;;;;15.36;100.00;96090.28;5039627;28;20704;-68
2023/07/27 05:07:09;;;;;;;1.88;0.93;;;;;;;15.35;100.00;96086.81;5038743;28;21222;-67
2023/07/27 05:09:35;;;;;;;15.90;1.98;;;;;;;15.53;100.00;96086.13;5039699;28;20704;-67
2023/07/27 05:12:04;;;;;;;1.45;1.00;;;;;;;15.69;100.00;96083.81;5039829;28;20236;-67
2023/07/27 05:14:30;;;;;;;0.80;0.80;;;;;;;15.67;100.00;96087.69;5039215;28;20209;-68
2023/07/27 05:16:57;;;;;;;0.75;0.75;;;;;;;15.73;100.00;96084.19;5038406;28;20213;-67
2023/07/27 05:19:23;;;;;;;1.98;0.85;;;;;;;15.63;100.00;96070.56;5039635;28;20666;-68
2023/07/27 05:21:50;;;;;;;0.90;0.80;;;;;;;15.80;100.00;96077.03;5039103;28;20228;-67
2023/07/27 05:24:16;;;;;;;1.42;0.80;;;;;;;15.77;100.00;96074.78;5039350;28;20206;-68
2023/07/27 05:26:43;;;;;;;1.40;0.80;;;;;;;15.79;100.00;96073.53;5039841;28;20201;-67
2023/07/27 05:29:10;;;;;;;1.88;1.20;;;;;;;16.10;100.00;96069.06;5038510;28;20224;-68
2023/07/27 05:31:37;;;;;;;2.35;0.85;;;;;;;15.93;100.00;96073.25;5039008;28;20228;-68
2023/07/27 05:34:03;;;;;;;1.73;0.80;;;;;;;15.76;100.00;96066.00;5039883;28;20864;-67
2023/07/27 05:36:30;;;;;;;1.55;0.85;;;;;;;15.79;100.00;96064.75;5039194;28;20209;-67
2023/07/27 05:38:56;;;;;;;0.95;0.63;;;;;;;15.84;100.00;96069.19;5038062;28;20206;-67
2023/07/27 05:41:23;;;;;;;1.83;0.90;;;;;;;16.06;100.00;96070.53;5039058;28;20232;-68
2023/07/27 05:43:50;;;;;;;2.33;1.08;;;;;;;15.86;100.00;96075.13;5039612;28;20201;-68
2023/07/27 05:46:20;;;;;;;0.95;0.65;;;;;;;16.28;100.00;96065.69;5039007;28;20946;-67
2023/07/27 05:48:47;;;;;;;1.30;0.95;;;;;;;16.28;100.00;96079.81;5037725;28;20225;-68
2023/07/27 05:51:13;;;;;;;0.73;0.73;;;;;;;16.22;100.00;96080.63;5039493;28;20598;-67
2023/07/27 05:53:40;;;;;;;2.42;1.00;;;;;;;16.20;100.00;96079.22;5038750;28;20209;-68
2023/07/27 05:56:06;;;;;;;1.38;0.90;;;;;;;16.33;100.00;96068.50;5039088;28;20207;-67
2023/07/27 05:58:33;;;;;;;2.25;0.85;;;;;;;16.51;100.00;96074.72;5038483;28;20201;-67
2023/07/27 06:01:00;;;;;;;1.42;1.05;;;;;;;16.62;100.00;96068.69;5038251;28;20727;-67
2023/07/27 06:03:28;;;;;;;5.07;1.30;;;;;;;16.63;100.00;96071.13;5038607;28;20228;-67
2023/07/27 06:05:54;;;;;;;1.58;0.98;;;;;;;16.69;100.00;96075.56;5038446;28;20208;-68
2023/07/27 06:08:21;;;;;;;1.10;0.80;;;;;;;16.72;100.00;96075.13;5037854;28;20205;-68
2023/07/27 06:10:48;;;;;;;2.78;1.20;;;;;;;16.55;100.00;96074.06;5037746;28;20221;-68
2023/07/27 06:13:14;;;;;;;1.75;0.90;;;;;;;16.70;100.00;96077.22;5039012;28;20643;-67
2023/07/27 06:15:47;;;;;;;2.25;1.20;;;;;;;17.01;100.00;96068.31;5038320;28;20205;-68
2023/07/27 06:18:13;;;;;;;2.85;1.17;;;;;;;17.02;100.00;96064.59;5037823;28;20201;-68
2023/07/27 06:20:41;;;;;;;1.88;0.93;;;;;;;17.23;100.00;96065.00;5037558;28;20225;-68
2023/07/27 06:23:08;;;;;;;12.10;2.75;;;;;;;17.11;100.00;96069.44;5037470;28;20234;-66
2023/07/27 06:25:34;;;;;;;4.97;0.90;;;;;;;17.04;100.00;96066.03;5035674;28;20201;-66
2023/07/27 06:28:01;;;;;;;4.80;1.23;;;;;;;17.25;100.00;96071.78;5036686;28;20577;-66
2023/07/27 06:30:27;;;;;;;1.70;0.75;;;;;;;17.16;100.00;96062.41;5037457;28;20233;-66
2023/07/27 06:32:53;;;;;;;1.38;0.52;;;;;;;17.36;100.00;96063.03;5037092;28;20212;-68
2023/07/27 06:35:21;;;;;;;1.10;0.75;;;;;;;17.22;100.00;96063.38;5037604;28;20550;-69
2023/07/27 06:37:49;;;;;;;0.98;0.88;;;;;;;17.45;100.00;96074.19;5037227;28;20286;-68
2023/07/27 06:40:15;;;;;;;0.65;0.63;;;;;;;17.02;100.00;96069.94;5037246;28;20232;-69
2023/07/27 06:42:42;;;;;;;6.60;0.90;;;;;;;16.94;100.00;96065.75;5037441;28;20255;-68
2023/07/27 06:45:09;;;;;;;1.80;0.90;;;;;;;16.90;100.00;96061.06;5038576;28;20201;-68
2023/07/27 06:47:35;;;;;;;7.80;1.85;;;;;;;16.53;100.00;96064.66;5036607;28;20220;-68
2023/07/27 06:50:02;;;;;;;1.10;0.70;;;;;;;16.59;100.00;96064.59;5036843;28;20236;-68
2023/07/27 06:52:29;;;;;;;1.00;0.73;;;;;;;16.60;100.00;96068.91;5035973;28;20301;-68
2023/07/27 06:54:57;;;;;;;2.25;0.68;;;;;;;16.82;100.00;96053.38;5037705;28;20224;-68
2023/07/27 06:57:26;;;;;;;1.35;0.85;;;;;;;17.22;100.00;96050.06;5036285;28;20198;-68
2023/07/27 06:59:52;;;;;;;1.77;0.90;;;;;;;17.36;100.00;96052.41;5036676;28;20201;-68
2023/07/27 07:02:19;;;;;;;1.23;0.80;;;;;;;17.33;100.00;96052.00;5038457;28;20205;-68
2023/07/27 07:04:46;;;;;;;1.35;0.75;;;;;;;17.26;100.00;96062.75;5037535;28;21006;-68
2023/07/27 07:07:14;;;;;;;1.58;0.85;;;;;;;17.06;100.00;96063.97;5036460;28;20201;-68
2023/07/27 07:09:40;;;;;;;0.70;0.70;;;;;;;17.27;100.00;96056.38;5037385;28;20224;-68
2023/07/27 07:12:09;;;;;;;2.15;1.10;;;;;;;17.74;100.00;96058.25;5037555;28;20286;-68
2023/07/27 07:14:35;;;;;;;2.92;1.27;;;;;;;17.55;100.00;96051.31;5037170;28;20201;-68
2023/07/27 07:17:03;;;;;;;1.58;0.73;;;;;;;17.77;100.00;96049.81;5036361;28;20205;-69
2023/07/27 07:19:29;;;;;;;0.93;0.80;;;;;;;17.92;100.00;96047.53;5036823;28;20228;-68
2023/07/27 07:21:56;;;;;;;1.70;0.85;;;;;;;17.46;100.00;96051.84;5036363;28;20222;-68
2023/07/27 07:24:22;;;;;;;1.27;0.63;;;;;;;17.90;100.00;96044.31;5036074;28;20198;-68
2023/07/27 07:26:49;;;;;;;1.13;0.85;;;;;;;18.03;100.00;96044.13;5036801;28;20202;-68
2023/07/27 07:29:17;;;;;;;0.60;0.60;;;;;;;18.31;100.00;96041.69;5035410;28;20257;-68
2023/07/27 07:31:43;;;;;;;1.33;0.80;;;;;;;18.33;100.00;96035.88;5035956;28;21146;-69
2023/07/27 07:34:10;;;;;;;1.50;0.70;;;;;;;18.57;100.00;96036.72;5036500;28;20205;-68
2023/07/27 07:36:36;;;;;;;5.35;0.40;;;;;;;18.53;99.66;96025.72;5036938;28;20205;-68
2023/07/27 07:39:03;;;;;;;1.00;0.70;;;;;;;18.41;95.64;96026.72;5035372;28;20193;-68
2023/07/27 07:41:29;;;;;;;0.65;0.45;;;;;;;18.59;94.98;96031.97;5036301;28;20735;-68
2023/07/27 07:43:56;;;;;;;0.90;0.80;;;;;;;18.52;98.49;96026.75;5036230;28;20201;-69
2023/07/27 07:46:24;;;;;;;11.18;1.13;;;;;;;18.93;96.63;96022.09;5036576;28;20197;-68
2023/07/27 07:48:50;;;;;;;1.08;0.50;;;;;;;18.91;92.93;96022.56;5034831;28;20204;-69
2023/07/27 07:51:16;;;;;;;0.57;0.50;;;;;;;18.49;95.72;96013.84;5036156;28;20221;-68
2023/07/27 07:53:43;;;;;;;2.05;0.60;;;;;;;18.64;96.76;96016.88;5036194;28;20212;-68
2023/07/27 07:56:14;;;;;;;1.98;0.77;;;;;;;19.10;95.61;96020.38;5036146;28;20201;-68
2023/07/27 07:58:40;;;;;;;0.65;0.57;;;;;;;18.89;95.79;96017.47;5036314;28;20209;-68
2023/07/27 08:01:07;;;;;;;1.48;0.60;;;;;;;19.04;98.94;96012.44;5035465;28;20716;-69
2023/07/27 08:03:35;;;;;;;1.58;1.10;;;;;;;19.01;94.57;96013.72;5035705;28;20366;-68
2023/07/27 08:06:01;;;;;;;0.75;0.60;;;;;;;18.90;95.19;96010.25;5036906;28;20670;-68
2023/07/27 08:08:28;;;;;;;0.85;0.63;;;;;;;19.15;96.88;96004.44;5035975;28;20212;-68
2023/07/27 08:10:54;;;;;;;1.27;0.77;;;;;;;19.21;95.94;96008.84;5035879;28;20240;-68
2023/07/27 08:13:21;;;;;;;0.80;0.63;;;;;;;19.20;93.48;96009.09;5036127;28;20209;-69
2023/07/27 08:15:52;;;;;;;0.82;0.70;;;;;;;19.72;97.05;96006.16;5036789;28;20295;-68
2023/07/27 08:18:19;;;;;;;1.98;1.05;;;;;;;19.35;97.37;96009.44;5034806;28;20286;-68
2023/07/27 08:20:57;;;;;;;1.30;0.60;;;;;;;19.91;93.00;96000.41;5034988;28;20220;-68
2023/07/27 08:23:24;;;;;;;1.65;0.90;;;;;;;19.09;93.02;95997.41;5036056;28;20216;-68
2023/07/27 08:25:50;;;;;;;2.67;0.98;;;;;;;19.51;90.33;96001.44;5035636;28;20204;-68
2023/07/27 08:28:17;;;;;;;1.92;0.98;;;;;;;19.71;90.28;95996.50;5034850;28;20207;-68
2023/07/27 08:30:43;;;;;;;1.58;0.77;;;;;;;19.59;92.84;96003.78;5034715;28;20228;-68
2023/07/27 08:33:12;;;;;;;1.55;0.90;;;;;;;19.65;91.54;95998.28;5035191;28;20216;-68
2023/07/27 08:35:38;;;;;;;4.72;1.50;;;;;;;19.87;92.50;95993.88;5035915;28;20630;-68
2023/07/27 08:38:06;;;;;;;1.52;0.75;;;;;;;19.54;93.16;95990.31;5034387;28;20225;-68
2023/07/27 08:40:33;;;;;;;0.75;0.52;;;;;;;19.63;90.07;95991.56;5035541;28;20224;-68
2023/07/27 08:43:00;;;;;;;1.52;0.60;;;;;;;19.67;91.33;95985.47;5034580;28;20233;-68
2023/07/27 08:45:27;;;;;;;1.20;0.68;;;;;;;19.49;90.10;95984.03;5035367;28;20324;-68
2023/07/27 08:47:54;;;;;;;1.50;0.73;;;;;;;19.76;90.21;95986.72;5033905;28;20796;-69
2023/07/27 08:50:21;;;;;;;5.50;0.90;;;;;;;19.94;93.76;95983.88;5034715;28;20221;-69
2023/07/27 08:52:47;;;;;;;1.55;0.77;;;;;;;19.59;92.23;95980.50;5034144;28;20213;-68
2023/07/27 08:55:16;;;;;;;1.77;0.90;;;;;;;20.14;90.26;95973.53;5035327;28;20201;-68
2023/07/27 08:57:43;;;;;;;1.27;0.75;;;;;;;19.95;90.43;95969.44;5033324;28;20348;-68
2023/07/27 09:00:11;;;;;;;3.85;1.20;;;;;;;20.36;93.31;95967.19;5034680;28;20205;-68
2023/07/27 09:02:38;;;;;;;1.05;0.68;;;;;;;20.13;89.21;95968.44;5034704;28;20205;-66
2023/07/27 09:05:06;;;;;;;1.50;0.82;;;;;;;20.71;92.35;95964.25;5034719;28;20201;-66
2023/07/27 09:07:32;;;;;;;0.77;0.50;;;;;;;20.46;91.39;95955.84;5035286;28;20684;-66
2023/07/27 09:09:59;;;;;;;0.75;0.50;;;;;;;20.53;89.97;95959.16;5035878;28;20244;-66
2023/07/27 09:12:27;;;;;;;1.60;1.00;;;;;;;20.73;93.06;95959.50;5035833;28;20216;-66
2023/07/27 09:14:54;;;;;;;0.60;0.60;;;;;;;20.49;86.07;95955.34;5035170;28;20314;-67
2023/07/27 09:17:20;;;;;;;1.17;0.90;;;;;;;20.33;88.97;95958.88;5039267;28;20208;-67
2023/07/27 09:19:47;;;;;;;1.00;0.70;;;;;;;20.59;84.99;95960.88;5039562;28;20209;-66
2023/07/27 09:22:13;;;;;;;1.73;0.70;;;;;;;20.63;83.97;95951.28;5039268;28;20221;-66
2023/07/27 09:24:41;;;;;;;2.22;0.80;;;;;;;21.20;88.59;95959.63;5039562;28;20213;-67
2023/07/27 09:27:10;;;;;;;1.20;1.10;;;;;;;21.02;82.70;95962.59;5038247;28;20760;-67
2023/07/27 09:29:38;;;;;;;1.63;0.85;;;;;;;21.33;83.41;95953.88;5036409;28;21633;-67
2023/07/27 09:32:05;;;;;;;2.47;0.82;;;;;;;20.84;83.23;95949.50;5037679;28;20701;-67
2023/07/27 09:34:32;;;;;;;0.73;0.40;;;;;;;20.46;80.86;95947.81;5039210;28;20205;-66
2023/07/27 09:37:02;;;;;;;1.23;1.00;;;;;;;20.82;81.12;95944.63;5036436;28;20205;-67
2023/07/27 09:39:29;;;;;;;0.68;0.68;;;;;;;20.60;79.27;95947.22;5038368;28;20209;-67
2023/07/27 09:41:56;;;;;;;1.35;0.60;;;;;;;20.80;78.79;95938.72;5038441;28;20249;-67
2023/07/27 09:44:24;;;;;;;6.93;1.20;;;;;;;21.53;85.51;95938.06;5038872;28;20218;-67
2023/07/27 09:46:51;;;;;;;1.67;0.65;;;;;;;21.82;78.10;95931.41;5038514;28;20208;-67
2023/07/27 09:49:19;;;;;;;1.08;0.73;;;;;;;21.79;79.00;95931.91;5037531;28;20201;-67
2023/07/27 09:51:46;;;;;;;1.30;0.77;;;;;;;21.55;75.53;95930.59;5037939;28;20248;-67
2023/07/27 09:54:13;;;;;;;1.00;0.93;;;;;;;21.93;74.97;95919.69;5038341;28;20208;-67
2023/07/27 09:56:40;;;;;;;1.20;0.80;;;;;;;22.13;76.81;95920.69;5038151;28;21389;-67
2023/07/27 09:59:08;;;;;;;0.65;0.63;;;;;;;21.73;75.47;95916.84;5037563;28;20204;-67
2023/07/27 10:01:34;;;;;;;0.77;0.50;;;;;;;21.66;75.54;95937.69;5037875;28;20221;-67
2023/07/27 10:04:03;;;;;;;1.13;0.70;;;;;;;21.99;76.81;95924.06;5038114;28;20311;-67
2023/07/27 10:06:31;;;;;;;0.80;0.70;;;;;;;21.77;75.64;95929.47;5037548;28;20220;-67
2023/07/27 10:08:57;;;;;;;0.80;0.60;;;;;;;21.74;72.25;95923.81;5037216;28;20202;-67
2023/07/27 10:11:52;;;;;;;1.13;0.82;;;;;;;21.93;72.62;95917.03;5037672;28;20240;-67
2023/07/27 10:14:19;;;;;;;1.48;0.77;;;;;;;21.59;74.81;95926.34;5038692;28;20213;-67
2023/07/27 10:16:58;;;;;;;0.90;0.57;;;;;;;21.79;76.82;95913.13;5038279;28;20205;-67
2023/07/27 10:19:26;;;;;;;1.48;0.60;;;;;;;21.74;74.32;95915.75;5039055;28;20260;-67
2023/07/27 10:21:52;;;;;;;1.33;0.88;;;;;;;21.68;75.78;95912.22;5037827;28;20235;-67
2023/07/27 10:24:21;;;;;;;1.08;0.88;;;;;;;21.89;75.50;95907.88;5037901;28;20208;-67
2023/07/27 10:26:50;;;;;;;5.35;0.70;;;;;;;21.57;72.47;95917.75;5038172;28;20260;-67
2023/07/27 10:29:19;;;;;;;1.50;0.85;;;;;;;21.68;73.28;95908.75;5038021;28;20284;-67
2023/07/27 10:31:59;;;;;;;3.25;0.73;;;;;;;21.17;77.05;95917.25;5037776;28;20252;-67
2023/07/27 10:34:27;;;;;;;1.55;1.00;;;;;;;21.34;74.59;95926.03;5036966;28;20213;-67
2023/07/27 10:36:57;;;;;;;1.42;1.13;;;;;;;21.38;76.74;95924.47;5038051;28;20217;-67
2023/07/27 10:39:26;;;;;;;2.47;0.73;;;;;;;21.37;77.45;95922.81;5037972;28;20213;-67
2023/07/27 10:42:01;;;;;;;0.98;0.60;;;;;;;21.56;75.47;95922.31;5037811;28;20221;-67
2023/07/27 10:44:28;;;;;;;1.23;0.70;;;;;;;21.30;77.70;95922.22;5037449;28;20243;-67
2023/07/27 10:46:57;;;;;;;0.55;0.52;;;;;;;21.35;80.70;95924.97;5037216;28;20237;-67
2023/07/27 10:49:24;;;;;;;1.42;0.82;;;;;;;21.16;75.91;95920.19;5037447;28;20214;-67
2023/07/27 10:51:52;;;;;;;2.72;0.68;;;;;;;21.37;76.21;95917.47;5037405;28;20228;-67
2023/07/27 10:54:19;;;;;;;0.50;0.40;;;;;;;21.07;75.61;95909.09;5036821;28;21134;-67
2023/07/27 10:56:46;;;;;;;2.58;0.80;;;;;;;21.37;75.96;95914.78;5037207;28;20229;-67
2023/07/27 10:59:14;;;;;;;1.40;0.75;;;;;;;21.42;75.34;95906.81;5036604;28;20587;-66
2023/07/27 11:01:41;;;;;;;0.47;0.45;;;;;;;21.25;77.55;95903.41;5036640;28;20236;-66
2023/07/27 11:04:08;;;;;;;0.82;0.60;;;;;;;21.30;74.39;95894.63;5037625;28;20201;-66
2023/07/27 11:06:43;;;;;;;1.73;0.93;;;;;;;21.64;74.90;95891.53;5037751;28;20209;-66
2023/07/27 11:09:15;;;;;;;2.03;0.90;;;;;;;21.85;73.32;95887.97;5036729;28;20673;-66
2023/07/27 11:11:42;;;;;;;0.85;0.50;;;;;;;21.35;69.82;95887.44;5036268;28;20229;-66
2023/07/27 11:14:09;;;;;;;0.65;0.52;;;;;;;21.48;69.45;95882.47;5036948;28;20204;-66
2023/07/27 11:16:39;;;;;;;1.05;0.75;;;;;;;21.69;71.76;95878.16;5037184;28;20205;-66
2023/07/27 11:19:09;;;;;;;0.95;0.50;;;;;;;21.98;70.66;95863.41;5036531;28;20205;-66
2023/07/27 11:21:40;;;;;;;1.33;0.77;;;;;;;22.16;70.65;95867.31;5036317;28;20600;-66
2023/07/27 11:24:16;;;;;;;0.30;0.30;;;;;;;22.48;67.34;95862.75;5036266;28;20212;-66
2023/07/27 11:26:48;;;;;;;1.25;0.60;;;;;;;22.18;67.98;95853.63;5036503;28;20213;-66
2023/07/27 11:29:17;;;;;;;1.42;0.90;;;;;;;22.30;67.97;95847.06;5035344;28;20201;-67